createdAt,value
2019-05-13T00:01:53.549Z,59.10
2019-05-13T00:04:24.296Z,59.20
2019-05-13T00:06:57.800Z,59.10
2019-05-13T00:09:29.232Z,59.00
2019-05-13T00:12:00.351Z,58.90
2019-05-13T00:14:31.275Z,58.90
2019-05-13T00:17:04.249Z,58.80
2019-05-13T00:19:35.166Z,58.90
2019-05-13T00:22:06.395Z,58.90
2019-05-13T00:24:37.846Z,59.00
2019-05-13T00:27:08.907Z,58.90
2019-05-13T00:29:39.731Z,59.00
2019-05-13T00:32:13.318Z,58.80
2019-05-13T00:34:44.537Z,58.90
2019-05-13T00:37:17.071Z,58.90
2019-05-13T00:39:48.258Z,58.90
2019-05-13T00:42:19.427Z,58.70
2019-05-13T00:44:50.495Z,58.90
2019-05-13T00:47:23.573Z,58.70
2019-05-13T00:49:54.225Z,58.60
2019-05-13T00:52:26.130Z,58.70
2019-05-13T00:54:57.123Z,58.70
2019-05-13T00:57:28.311Z,58.50
2019-05-13T00:59:59.223Z,58.60
2019-05-13T01:02:30.679Z,58.60
2019-05-13T01:05:04.156Z,58.50
2019-05-13T01:07:34.216Z,58.60
2019-05-13T01:10:05.860Z,58.60
2019-05-13T01:12:37.222Z,58.60
2019-05-13T01:15:08.797Z,58.50
2019-05-13T01:17:40.582Z,58.50
2019-05-13T01:20:14.186Z,58.70
2019-05-13T01:22:44.449Z,58.70
2019-05-13T01:25:15.466Z,58.70
2019-05-13T01:27:46.657Z,58.70
2019-05-13T01:30:18.973Z,58.70
2019-05-13T01:32:50.134Z,58.60
2019-05-13T01:35:23.434Z,58.70
2019-05-13T01:37:53.977Z,58.70
2019-05-13T01:40:25.073Z,58.70
2019-05-13T01:42:56.269Z,58.70
2019-05-13T01:45:27.201Z,59.60
2019-05-13T01:47:58.209Z,59.60
2019-05-13T01:50:29.341Z,59.50
2019-05-13T01:53:00.701Z,59.60
2019-05-13T01:55:33.951Z,59.70
2019-05-13T01:58:04.816Z,59.60
2019-05-13T02:00:36.357Z,59.70
2019-05-13T02:03:07.694Z,59.60
2019-05-13T02:05:38.864Z,59.70
2019-05-13T02:08:10.104Z,59.70
2019-05-13T02:10:54.296Z,59.70
2019-05-13T02:13:26.040Z,59.70
2019-05-13T02:15:57.049Z,59.90
2019-05-13T02:18:28.980Z,59.90
2019-05-13T02:20:59.799Z,60.00
2019-05-13T02:23:31.163Z,60.10
2019-05-13T02:26:04.243Z,60.10
2019-05-13T02:28:34.563Z,60.30
2019-05-13T02:31:05.680Z,60.40
2019-05-13T02:33:36.892Z,60.40
2019-05-13T02:36:08.127Z,60.40
2019-05-13T02:38:42.460Z,60.40
2019-05-13T02:41:13.429Z,60.50
2019-05-13T02:43:45.408Z,60.30
2019-05-13T02:46:16.565Z,60.30
2019-05-13T02:48:47.571Z,60.20
2019-05-13T02:51:18.900Z,60.10
2019-05-13T02:53:52.422Z,60.00
2019-05-13T02:56:23.391Z,59.90
2019-05-13T02:58:54.504Z,59.30
2019-05-13T03:01:25.663Z,59.80
2019-05-13T03:03:56.797Z,59.60
2019-05-13T03:06:27.948Z,59.40
2019-05-13T03:08:58.964Z,58.50
2019-05-13T03:11:32.883Z,58.90
2019-05-13T03:14:03.758Z,58.20
2019-05-13T03:16:42.804Z,57.90
2019-05-13T03:19:13.769Z,57.70
2019-05-13T03:21:45.252Z,57.60
2019-05-13T03:24:16.436Z,57.50
2019-05-13T03:26:47.515Z,57.50
2019-05-13T03:29:18.496Z,57.40
2019-05-13T03:31:54.851Z,57.30
2019-05-13T03:34:26.157Z,57.20
2019-05-13T03:36:57.333Z,57.10
2019-05-13T03:39:32.977Z,57.00
2019-05-13T03:42:04.265Z,56.90
2019-05-13T03:44:36.796Z,56.80
2019-05-13T03:47:12.398Z,56.70
2019-05-13T03:49:44.487Z,56.60
2019-05-13T03:52:15.604Z,56.70
2019-05-13T03:54:46.820Z,56.60
2019-05-13T03:57:18.227Z,56.50
2019-05-13T03:59:52.423Z,56.30
2019-05-13T04:02:22.823Z,56.00
2019-05-13T04:04:58.341Z,55.90
2019-05-13T04:07:26.563Z,55.80
2019-05-13T04:09:57.794Z,55.70
2019-05-13T04:12:28.923Z,55.70
2019-05-13T04:15:03.281Z,55.50
2019-05-13T04:17:33.964Z,55.30
2019-05-13T04:20:05.885Z,55.10
2019-05-13T04:22:37.567Z,54.90
2019-05-13T04:25:12.436Z,54.80
2019-05-13T04:27:42.902Z,54.70
2019-05-13T04:30:14.765Z,54.70
2019-05-13T04:32:45.963Z,54.60
2019-05-13T04:35:17.144Z,54.40
2019-05-13T04:37:48.455Z,54.60
2019-05-13T04:40:22.938Z,54.50
2019-05-13T04:42:53.857Z,54.40
2019-05-13T04:45:25.720Z,54.40
2019-05-13T04:47:57.107Z,54.20
2019-05-13T04:50:28.144Z,54.20
2019-05-13T04:53:03.231Z,53.90
2019-05-13T04:55:33.633Z,53.80
2019-05-13T04:58:04.942Z,53.50
2019-05-13T05:01:23.426Z,53.30
2019-05-13T05:04:11.728Z,53.20
2019-05-13T05:07:12.703Z,52.20
2019-05-13T05:10:30.527Z,51.90
2019-05-13T05:13:28.051Z,51.40
2019-05-13T05:16:09.099Z,51.20
2019-05-13T05:19:23.313Z,51.10
2019-05-13T05:22:13.575Z,51.00
2019-05-13T05:25:14.086Z,51.00
2019-05-13T05:28:11.184Z,51.00
2019-05-13T05:31:20.242Z,51.10
2019-05-13T05:34:15.451Z,51.00
2019-05-13T05:37:11.680Z,50.70
2019-05-13T05:39:43.627Z,50.80
2019-05-13T05:42:16.058Z,51.60
2019-05-13T05:44:51.820Z,51.10
2019-05-13T05:47:24.659Z,50.90
2019-05-13T05:49:57.266Z,50.90
2019-05-13T05:52:31.635Z,50.90
2019-05-13T05:55:04.106Z,50.70
2019-05-13T05:57:36.970Z,50.40
2019-05-13T06:00:08.137Z,50.30
2019-05-13T06:02:42.493Z,50.30
2019-05-13T06:05:13.559Z,50.20
2019-05-13T06:07:44.674Z,49.70
2019-05-13T06:10:16.039Z,49.20
2019-05-13T06:12:47.587Z,49.00
2019-05-13T06:15:18.883Z,48.20
2019-05-13T06:17:51.796Z,47.80
2019-05-13T06:20:22.718Z,47.90
2019-05-13T06:22:54.011Z,48.40
2019-05-13T06:25:25.098Z,47.90
2019-05-13T06:27:55.979Z,47.50
2019-05-13T06:30:27.293Z,47.20
2019-05-13T06:33:01.460Z,47.30
2019-05-13T06:35:32.270Z,46.90
2019-05-13T06:38:04.878Z,46.70
2019-05-13T06:40:35.829Z,46.90
2019-05-13T06:43:06.627Z,47.20
2019-05-13T06:45:37.654Z,46.90
2019-05-13T06:48:08.783Z,46.70
2019-05-13T06:50:41.568Z,46.70
2019-05-13T06:53:12.878Z,46.70
2019-05-13T06:55:44.189Z,45.90
2019-05-13T06:58:15.418Z,45.60
2019-05-13T07:00:46.826Z,45.40
2019-05-13T07:03:17.835Z,44.90
2019-05-13T07:05:49.064Z,44.50
2019-05-13T07:08:22.033Z,44.50
2019-05-13T07:10:52.771Z,44.30
2019-05-13T07:13:23.834Z,44.40
2019-05-13T07:15:55.059Z,44.70
2019-05-13T07:18:26.371Z,44.60
2019-05-13T07:20:57.548Z,44.00
2019-05-13T07:23:28.460Z,44.00
2019-05-13T07:26:01.726Z,43.50
2019-05-13T07:28:32.598Z,43.50
2019-05-13T07:31:03.659Z,43.50
2019-05-13T07:33:35.419Z,43.10
2019-05-13T07:36:06.579Z,42.80
2019-05-13T07:38:37.691Z,42.90
2019-05-13T07:41:11.844Z,43.10
2019-05-13T07:43:42.660Z,43.20
2019-05-13T07:46:13.895Z,43.00
2019-05-13T07:48:44.979Z,42.80
2019-05-13T07:51:16.022Z,42.40
2019-05-13T07:53:46.763Z,42.90
2019-05-13T07:56:17.463Z,42.20
2019-05-13T07:58:48.227Z,42.20
2019-05-13T08:01:19.034Z,42.00
2019-05-13T08:03:51.584Z,42.00
2019-05-13T08:06:22.311Z,42.10
2019-05-13T08:08:53.271Z,41.70
2019-05-13T08:11:24.482Z,41.60
2019-05-13T08:13:55.466Z,41.90
2019-05-13T08:16:26.773Z,41.90
2019-05-13T08:18:57.839Z,42.50
2019-05-13T08:21:29.375Z,42.00
2019-05-13T08:24:02.813Z,42.10
2019-05-13T08:26:38.181Z,41.80
2019-05-13T08:29:06.629Z,41.60
2019-05-13T08:31:37.842Z,41.20
2019-05-13T08:34:11.544Z,40.90
2019-05-13T08:36:42.744Z,40.40
2019-05-13T08:39:13.867Z,40.00
2019-05-13T08:41:44.871Z,40.10
2019-05-13T08:44:16.807Z,40.20
2019-05-13T08:46:48.080Z,40.60
2019-05-13T08:49:19.274Z,40.60
2019-05-13T08:51:52.486Z,40.70
2019-05-13T08:54:22.262Z,41.10
2019-05-13T08:56:53.424Z,41.60
2019-05-13T08:59:25.255Z,42.40
2019-05-13T09:01:57.323Z,42.00
2019-05-13T09:04:31.375Z,42.10
2019-05-13T09:07:02.701Z,42.20
2019-05-13T09:09:33.864Z,42.80
2019-05-13T09:12:05.055Z,41.60
2019-05-13T09:14:36.063Z,41.10
2019-05-13T09:17:07.131Z,41.20
2019-05-13T09:19:38.510Z,40.50
2019-05-13T09:22:12.181Z,40.80
2019-05-13T09:24:42.795Z,41.00
2019-05-13T09:27:14.139Z,40.20
2019-05-13T09:29:45.527Z,39.50
2019-05-13T09:32:16.995Z,38.00
2019-05-13T09:34:48.228Z,37.40
2019-05-13T09:37:19.317Z,37.20
2019-05-13T09:39:51.637Z,36.20
2019-05-13T09:42:23.158Z,35.10
2019-05-13T09:44:54.507Z,34.50
2019-05-13T09:47:28.342Z,33.80
2019-05-13T09:49:58.435Z,33.30
2019-05-13T09:52:31.710Z,32.60
2019-05-13T09:55:03.152Z,31.90
2019-05-13T09:57:34.680Z,31.90
2019-05-13T10:00:06.446Z,32.30
2019-05-13T10:02:37.924Z,32.40
2019-05-13T10:05:11.406Z,33.10
2019-05-13T10:07:42.658Z,33.70
2019-05-13T10:10:14.615Z,34.30
2019-05-13T10:13:07.049Z,34.80
2019-05-13T10:15:21.994Z,35.40
2019-05-13T10:17:52.677Z,36.00
2019-05-13T10:20:46.978Z,36.70
2019-05-13T10:23:18.375Z,37.30
2019-05-13T10:25:52.194Z,37.50
2019-05-13T10:28:24.484Z,36.60
2019-05-13T10:30:55.944Z,35.70
2019-05-13T10:33:27.319Z,35.60
2019-05-13T10:35:59.091Z,35.10
2019-05-13T10:38:32.443Z,34.50
2019-05-13T10:41:04.020Z,34.10
2019-05-13T10:43:40.077Z,33.70
2019-05-13T10:46:12.467Z,33.50
2019-05-13T10:48:41.943Z,32.70
2019-05-13T10:51:13.515Z,32.20
2019-05-13T10:53:44.742Z,32.70
2019-05-13T10:56:16.422Z,32.30
2019-05-13T10:58:48.098Z,31.20
2019-05-13T11:01:22.318Z,30.30
2019-05-13T11:03:52.512Z,31.10
2019-05-13T11:06:23.727Z,31.10
2019-05-13T11:08:54.679Z,31.40
2019-05-13T11:11:27.355Z,29.90
2019-05-13T11:14:16.235Z,29.80
2019-05-13T11:16:47.947Z,30.00
2019-05-13T11:19:19.111Z,29.90
2019-05-13T11:21:50.884Z,31.10
2019-05-13T11:24:23.079Z,31.40
2019-05-13T11:26:54.879Z,32.00
2019-05-13T11:29:26.348Z,31.30
2019-05-13T11:31:58.202Z,31.50
2019-05-13T11:34:29.218Z,31.70
2019-05-13T11:37:03.626Z,31.30
2019-05-13T11:39:33.259Z,31.30
2019-05-13T11:42:04.692Z,30.70
2019-05-13T11:44:36.286Z,31.40
2019-05-13T11:47:08.364Z,31.50
2019-05-13T11:49:42.513Z,31.50
2019-05-13T11:52:13.275Z,30.90
2019-05-13T11:54:44.579Z,30.90
2019-05-13T11:57:16.240Z,31.10
2019-05-13T11:59:47.523Z,31.40
2019-05-13T12:02:22.923Z,31.50
2019-05-13T12:04:53.425Z,31.40
2019-05-13T12:07:25.179Z,31.50
2019-05-13T12:09:56.123Z,31.80
2019-05-13T12:12:31.777Z,30.70
2019-05-13T12:15:22.372Z,30.60
2019-05-13T12:17:33.976Z,30.30
2019-05-13T12:20:05.775Z,30.70
2019-05-13T12:22:36.971Z,30.80
2019-05-13T12:25:08.496Z,31.00
2019-05-13T12:27:41.375Z,31.80
2019-05-13T12:30:13.072Z,32.00
2019-05-13T12:32:44.519Z,32.70
2019-05-13T12:35:15.371Z,32.90
2019-05-13T12:37:47.022Z,33.30
2019-05-13T12:40:18.894Z,33.70
2019-05-13T12:42:53.222Z,34.10
2019-05-13T12:45:22.602Z,34.00
2019-05-13T12:47:54.329Z,34.30
2019-05-13T12:50:26.318Z,34.50
2019-05-13T12:52:57.686Z,34.70
2019-05-13T12:55:32.829Z,34.80
2019-05-13T12:58:03.099Z,35.00
2019-05-13T13:00:34.519Z,35.40
2019-05-13T13:03:06.547Z,36.00
2019-05-13T13:05:42.909Z,36.10
2019-05-13T13:08:24.439Z,36.90
2019-05-13T13:10:46.699Z,37.60
2019-05-13T13:13:18.399Z,37.60
2019-05-13T13:15:52.496Z,36.80
2019-05-13T13:18:22.827Z,36.00
2019-05-13T13:21:00.847Z,36.40
2019-05-13T13:23:27.235Z,35.80
2019-05-13T13:26:02.915Z,36.20
2019-05-13T13:28:34.126Z,35.80
2019-05-13T13:31:05.570Z,36.10
2019-05-13T13:33:37.087Z,36.50
2019-05-13T13:36:08.771Z,36.70
2019-05-13T13:38:43.688Z,37.30
2019-05-13T13:41:22.008Z,37.50
2019-05-13T13:43:46.095Z,37.50
2019-05-13T13:46:37.074Z,37.40
2019-05-13T13:48:55.470Z,37.60
2019-05-13T13:53:56.687Z,38.00
2019-05-13T13:56:28.763Z,38.10
2019-05-13T13:59:00.148Z,38.20
2019-05-13T14:01:33.604Z,38.10
2019-05-13T14:04:04.851Z,38.20
2019-05-13T14:06:58.943Z,37.90
2019-05-13T14:09:11.888Z,38.00
2019-05-13T14:11:42.814Z,38.10
2019-05-13T14:14:14.263Z,38.40
2019-05-13T14:16:46.778Z,38.10
2019-05-13T14:19:21.648Z,37.90
2019-05-13T14:21:52.623Z,37.50
2019-05-13T14:24:23.747Z,37.90
2019-05-13T14:26:55.390Z,37.70
2019-05-13T14:29:38.548Z,37.60
2019-05-13T14:32:01.301Z,37.30
2019-05-13T14:34:33.831Z,37.10
2019-05-13T14:37:05.179Z,37.30
2019-05-13T14:39:36.635Z,37.30
2019-05-13T14:42:08.263Z,37.30
2019-05-13T14:44:39.133Z,37.50
2019-05-13T14:47:12.515Z,37.40
2019-05-13T14:49:44.336Z,38.50
2019-05-13T14:52:15.803Z,37.60
2019-05-13T14:54:47.467Z,37.60
2019-05-13T14:57:21.782Z,37.60
2019-05-13T14:59:52.856Z,37.50
2019-05-13T15:02:23.883Z,38.00
2019-05-13T15:04:56.815Z,37.70
2019-05-13T15:07:27.831Z,38.00
2019-05-13T15:09:58.963Z,37.90
2019-05-13T15:12:32.315Z,37.90
2019-05-13T15:15:04.910Z,37.60
2019-05-13T15:17:36.375Z,38.30
2019-05-13T15:20:08.636Z,37.80
2019-05-13T15:22:42.233Z,37.50
2019-05-13T15:25:13.183Z,36.90
2019-05-13T15:27:44.170Z,37.20
2019-05-13T15:30:18.171Z,37.40
2019-05-13T15:32:52.285Z,37.00
2019-05-13T15:35:22.645Z,37.20
2019-05-13T15:37:55.315Z,37.10
2019-05-13T15:40:26.976Z,37.50
2019-05-13T15:42:59.235Z,37.20
2019-05-13T15:45:31.872Z,36.80
2019-05-13T15:48:02.999Z,36.70
2019-05-13T15:50:34.447Z,37.00
2019-05-13T15:53:06.723Z,37.10
2019-05-13T15:55:38.354Z,36.60
2019-05-13T15:58:11.777Z,36.50
2019-05-13T16:00:43.279Z,36.20
2019-05-13T16:03:14.527Z,35.90
2019-05-13T16:05:47.095Z,35.60
2019-05-13T16:08:18.418Z,35.60
2019-05-13T16:10:49.620Z,35.60
2019-05-13T16:13:22.189Z,35.60
2019-05-13T16:15:53.227Z,35.10
2019-05-13T16:18:24.315Z,35.10
2019-05-13T16:20:55.131Z,35.20
2019-05-13T16:23:26.583Z,35.00
2019-05-13T16:26:00.864Z,34.90
2019-05-13T16:28:32.501Z,34.90
2019-05-13T16:31:05.271Z,34.80
2019-05-13T16:33:36.750Z,34.90
2019-05-13T16:36:08.178Z,34.50
2019-05-13T16:38:41.680Z,34.50
2019-05-13T16:41:13.579Z,34.50
2019-05-13T16:43:45.567Z,34.50
2019-05-13T16:46:17.087Z,34.60
2019-05-13T16:48:48.287Z,34.50
2019-05-13T16:51:21.600Z,34.40
2019-05-13T16:53:55.799Z,34.20
2019-05-13T16:56:30.396Z,34.40
2019-05-13T16:59:01.615Z,34.10
2019-05-13T17:01:33.589Z,33.80
2019-05-13T17:04:05.278Z,34.00
2019-05-13T17:06:36.723Z,34.10
2019-05-13T17:09:08.263Z,34.20
2019-05-13T17:11:41.495Z,34.10
2019-05-13T17:14:13.074Z,34.20
2019-05-13T17:16:44.751Z,34.20
2019-05-13T17:19:16.123Z,34.30
2019-05-13T17:21:47.639Z,34.50
2019-05-13T17:24:18.917Z,34.50
2019-05-13T17:26:52.261Z,34.80
2019-05-13T17:29:28.043Z,35.10
2019-05-13T17:32:03.310Z,35.00
2019-05-13T17:34:37.575Z,34.80
2019-05-13T17:37:11.717Z,34.90
2019-05-13T17:39:43.947Z,35.40
2019-05-13T17:42:16.235Z,35.70
2019-05-13T17:44:48.832Z,36.40
2019-05-13T17:47:21.840Z,36.20
2019-05-13T17:49:54.779Z,36.20
2019-05-13T17:52:27.195Z,36.50
2019-05-13T17:55:01.134Z,36.90
2019-05-13T17:57:34.320Z,37.00
2019-05-13T18:00:06.775Z,37.30
2019-05-13T18:02:39.032Z,37.50
2019-05-13T18:05:12.531Z,37.90
2019-05-13T18:07:44.724Z,38.20
2019-05-13T18:10:22.695Z,38.70
2019-05-13T18:12:54.923Z,39.00
2019-05-13T18:15:27.263Z,39.30
2019-05-13T18:18:44.111Z,39.30
2019-05-13T18:21:11.906Z,39.50
2019-05-13T18:23:43.719Z,39.90
2019-05-13T18:26:16.246Z,40.20
2019-05-13T18:28:48.027Z,40.10
2019-05-13T18:31:19.255Z,40.50
2019-05-13T18:33:51.071Z,40.60
2019-05-13T18:36:22.734Z,40.90
2019-05-13T18:38:54.819Z,40.90
2019-05-13T18:41:26.311Z,41.10
2019-05-13T18:43:57.732Z,41.20
2019-05-13T18:46:32.230Z,42.20
2019-05-13T18:49:03.843Z,41.60
2019-05-13T18:51:35.091Z,41.50
2019-05-13T18:54:06.131Z,42.00
2019-05-13T18:56:37.180Z,42.00
2019-05-13T18:59:08.303Z,42.10
2019-05-13T19:01:39.327Z,42.30
2019-05-13T19:04:11.421Z,42.20
2019-05-13T19:06:42.939Z,42.30
2019-05-13T19:09:14.523Z,42.30
2019-05-13T19:11:45.768Z,42.40
2019-05-13T19:14:17.423Z,42.80
2019-05-13T19:16:48.231Z,42.60
2019-05-13T19:19:22.221Z,42.80
2019-05-13T19:21:52.315Z,42.80
2019-05-13T19:24:23.919Z,42.80
2019-05-13T19:26:54.979Z,43.00
2019-05-13T19:29:26.531Z,43.10
2019-05-13T19:31:57.639Z,43.00
2019-05-13T19:34:28.713Z,42.90
2019-05-13T19:37:02.164Z,43.10
2019-05-13T19:39:33.463Z,43.10
2019-05-13T19:42:04.613Z,43.10
2019-05-13T19:44:36.411Z,43.20
2019-05-13T19:47:07.863Z,43.30
2019-05-13T19:49:41.973Z,43.40
2019-05-13T19:52:12.020Z,43.60
2019-05-13T19:54:43.144Z,43.80
2019-05-13T19:57:15.507Z,43.90
2019-05-13T19:59:46.563Z,44.00
2019-05-13T20:02:17.695Z,44.00
2019-05-13T20:04:51.718Z,44.30
2019-05-13T20:07:24.121Z,44.10
2019-05-13T20:09:55.211Z,44.40
2019-05-13T20:12:25.980Z,44.40
2019-05-13T20:14:57.690Z,44.70
2019-05-13T20:17:28.757Z,44.80
2019-05-13T20:20:02.083Z,44.90
2019-05-13T20:22:37.387Z,44.90
2019-05-13T20:25:12.431Z,45.20
2019-05-13T20:27:43.447Z,45.20
2019-05-13T20:30:14.975Z,45.30
2019-05-13T20:32:45.768Z,45.80
2019-05-13T20:35:17.347Z,46.60
2019-05-13T20:37:48.871Z,47.00
2019-05-13T20:40:22.119Z,47.60
2019-05-13T20:42:53.207Z,48.70
2019-05-13T20:45:24.367Z,48.20
2019-05-13T20:47:55.251Z,48.40
2019-05-13T20:50:26.587Z,48.30
2019-05-13T20:52:57.782Z,48.50
2019-05-13T20:55:29.079Z,48.60
2019-05-13T20:58:01.434Z,48.70
2019-05-13T21:00:33.811Z,48.80
2019-05-13T21:03:05.754Z,48.90
2019-05-13T21:05:37.114Z,49.00
2019-05-13T21:08:09.011Z,49.20
2019-05-13T21:10:42.118Z,48.90
2019-05-13T21:13:14.608Z,49.10
2019-05-13T21:15:45.855Z,49.10
2019-05-13T21:18:22.304Z,49.00
2019-05-13T21:20:54.877Z,49.10
2019-05-13T21:23:31.071Z,49.20
2019-05-13T21:26:01.892Z,49.10
2019-05-13T21:28:32.872Z,49.00
2019-05-13T21:31:04.153Z,49.00
2019-05-13T21:33:35.522Z,48.90
2019-05-13T21:36:06.683Z,49.00
2019-05-13T21:38:38.408Z,49.00
2019-05-13T21:41:11.754Z,48.70
2019-05-13T21:43:43.274Z,48.70
2019-05-13T21:46:14.945Z,48.70
2019-05-13T21:48:46.668Z,48.70
2019-05-13T21:51:19.122Z,48.50
2019-05-13T21:53:51.932Z,48.40
2019-05-13T21:56:23.372Z,48.40
2019-05-13T21:58:54.262Z,48.20
2019-05-13T22:01:25.529Z,48.30
2019-05-13T22:03:57.930Z,48.40
2019-05-13T22:06:29.287Z,48.20
2019-05-13T22:09:00.747Z,48.30
2019-05-13T22:11:35.189Z,48.30
2019-05-13T22:14:07.143Z,48.30
2019-05-13T22:16:41.238Z,48.40
2019-05-13T22:19:12.410Z,48.40
2019-05-13T22:21:44.922Z,48.60
2019-05-13T22:24:16.074Z,48.70
2019-05-13T22:26:47.894Z,48.60
2019-05-13T22:29:23.010Z,48.50
2019-05-13T22:31:52.416Z,48.50
2019-05-13T22:34:24.194Z,48.50
2019-05-13T22:36:55.286Z,48.30
2019-05-13T22:39:26.662Z,48.40
2019-05-13T22:41:58.234Z,48.40
2019-05-13T22:44:32.503Z,48.30
2019-05-13T22:47:03.646Z,48.30
2019-05-13T22:49:34.947Z,48.20
2019-05-13T22:52:06.314Z,48.30
2019-05-13T22:54:38.003Z,48.40
2019-05-13T22:57:11.730Z,48.60
2019-05-13T22:59:41.858Z,48.70
2019-05-13T23:02:14.466Z,48.60
2019-05-13T23:04:45.976Z,48.80
2019-05-13T23:07:18.433Z,48.90
2019-05-13T23:09:51.803Z,48.80
2019-05-13T23:12:22.419Z,49.00
2019-05-13T23:14:54.779Z,49.10
2019-05-13T23:17:25.803Z,49.20
2019-05-13T23:19:56.919Z,49.20
2019-05-13T23:22:28.139Z,49.30
2019-05-13T23:24:58.877Z,49.20
2019-05-13T23:27:32.120Z,49.30
2019-05-13T23:30:03.467Z,49.40
2019-05-13T23:32:35.863Z,49.50
2019-05-13T23:35:07.059Z,49.50
2019-05-13T23:37:38.499Z,49.60
2019-05-13T23:40:11.869Z,49.70
2019-05-13T23:42:43.067Z,49.60
2019-05-13T23:45:14.067Z,49.60
2019-05-13T23:47:45.175Z,49.70
2019-05-13T23:50:16.390Z,49.70
2019-05-13T23:52:47.771Z,49.60
2019-05-13T23:55:18.735Z,49.70
2019-05-13T23:57:52.465Z,49.80
